Time;durP1;ratioP1;P1;durP2;ratioP2;P2;SDS_P1;SDS_P2;PMS_P1;PMS_P2;Temp;Humidity;BMP_temperature;BMP_pressure;BME280_temperature;BME280_humidity;BME280_pressure;Samples;Min_cycle;Max_cycle;Signal;HPM_P1;HPM_P2
2023/09/04 00:02:18;;;;;;;1.17;1.17;;;15.00;99.90;;;;;;5001416;28;20043;-36
2023/09/04 00:04:43;;;;;;;0.95;0.95;;;14.90;99.90;;;;;;5003844;28;20030;-35
2023/09/04 00:07:09;;;;;;;2.05;0.80;;;14.80;99.90;;;;;;5003550;28;20087;-34
2023/09/04 00:09:34;;;;;;;1.38;1.10;;;14.80;99.90;;;;;;5004200;28;20026;-33
2023/09/04 00:12:00;;;;;;;0.93;0.93;;;14.80;99.90;;;;;;5003635;28;20026;-38
2023/09/04 00:14:25;;;;;;;1.10;1.10;;;14.80;99.90;;;;;;5003930;28;20061;-41
2023/09/04 00:16:51;;;;;;;1.50;1.40;;;14.70;99.90;;;;;;5004519;28;20112;-41
2023/09/04 00:19:17;;;;;;;1.33;1.23;;;14.80;99.90;;;;;;5007171;28;20034;-37
2023/09/04 00:21:42;;;;;;;3.13;1.88;;;14.80;99.90;;;;;;5001699;28;20148;-35
2023/09/04 00:24:08;;;;;;;2.33;1.80;;;14.80;99.90;;;;;;5001412;28;20030;-39
2023/09/04 00:26:35;;;;;;;3.55;1.90;;;14.80;99.90;;;;;;4999789;28;20038;-36
2023/09/04 00:29:01;;;;;;;2.85;2.00;;;14.80;99.90;;;;;;5002918;28;20053;-35
2023/09/04 00:31:27;;;;;;;4.43;1.80;;;14.70;99.90;;;;;;5004384;28;20046;-36
2023/09/04 00:33:52;;;;;;;1.75;1.42;;;14.60;99.90;;;;;;4997446;28;20030;-40
2023/09/04 00:36:18;;;;;;;1.40;1.30;;;14.50;99.90;;;;;;5006391;28;20101;-39
2023/09/04 00:38:43;;;;;;;1.60;1.50;;;14.50;99.90;;;;;;4999502;28;20038;-38
2023/09/04 00:41:09;;;;;;;1.67;1.42;;;14.30;99.90;;;;;;5003041;28;20042;-41
2023/09/04 00:43:38;;;;;;;1.70;1.60;;;14.20;99.90;;;;;;5003846;28;20033;-37
2023/09/04 00:46:05;;;;;;;3.55;2.10;;;14.20;99.90;;;;;;5004077;28;20065;-33
2023/09/04 00:48:33;;;;;;;2.20;1.75;;;14.30;99.90;;;;;;5002907;28;20489;-39
2023/09/04 00:51:00;;;;;;;3.42;1.88;;;14.30;99.90;;;;;;5005268;28;20533;-40
2023/09/04 00:53:26;;;;;;;2.15;1.95;;;14.20;99.90;;;;;;5003844;28;20044;-36
2023/09/04 00:55:52;;;;;;;2.05;1.85;;;14.20;99.90;;;;;;5003401;28;20142;-38
2023/09/04 00:58:18;;;;;;;3.97;2.38;;;14.20;99.90;;;;;;5003557;28;20112;-39
2023/09/04 01:00:44;;;;;;;3.17;2.05;;;14.20;99.90;;;;;;5002082;28;20104;-37
2023/09/04 01:03:12;;;;;;;2.40;1.83;;;14.30;99.90;;;;;;5002760;28;20053;-37
2023/09/04 01:05:37;;;;;;;2.40;2.20;;;14.30;99.90;;;;;;5002162;28;20125;-36
2023/09/04 01:08:04;;;;;;;1.98;1.70;;;14.30;99.90;;;;;;5003325;28;20117;-37
2023/09/04 01:10:42;;;;;;;1.75;1.58;;;14.30;99.90;;;;;;5003561;28;20028;-36
2023/09/04 01:13:22;;;;;;;1.60;1.50;;;14.30;99.90;;;;;;5001101;28;20018;-39
2023/09/04 01:15:48;;;;;;;4.32;1.30;;;14.20;99.90;;;;;;4999337;28;20037;-41
2023/09/04 01:18:14;;;;;;;1.50;1.40;;;14.20;99.90;;;;;;5004854;28;20963;-41
2023/09/04 01:20:40;;;;;;;2.03;1.30;;;14.10;99.90;;;;;;5004900;28;20439;-34
2023/09/04 01:23:05;;;;;;;12.40;1.27;;;14.00;99.90;;;;;;5003613;28;20119;-37
2023/09/04 01:25:55;;;;;;;1.92;1.00;;;14.00;99.90;;;;;;4999323;28;20038;-38
2023/09/04 01:28:33;;;;;;;1.48;1.30;;;13.80;99.90;;;;;;5000948;28;20057;-37
2023/09/04 01:31:13;;;;;;;3.53;1.30;;;13.70;99.90;;;;;;5000116;28;20036;-39
2023/09/04 01:33:47;;;;;;;1.70;1.60;;;13.80;99.90;;;;;;5000441;28;20125;-40
2023/09/04 01:36:14;;;;;;;1.50;1.40;;;13.60;99.90;;;;;;4997212;28;20034;-37
2023/09/04 01:38:42;;;;;;;1.95;1.85;;;13.60;99.90;;;;;;5002926;28;20630;-38
2023/09/04 01:41:08;;;;;;;2.28;1.83;;;13.60;99.90;;;;;;5001288;28;20038;-32
2023/09/04 01:43:34;;;;;;;2.70;2.00;;;13.60;99.90;;;;;;5002326;28;20665;-32
2023/09/04 01:46:00;;;;;;;2.45;2.13;;;13.70;99.90;;;;;;4999488;28;20021;-31
2023/09/04 01:48:25;;;;;;;2.22;2.05;;;13.70;99.90;;;;;;5005883;28;20426;-33
2023/09/04 01:50:53;;;;;;;3.08;1.90;;;13.70;99.90;;;;;;5008840;28;20203;-33
2023/09/04 01:53:19;;;;;;;5.50;2.40;;;13.70;99.90;;;;;;5002500;28;20018;-33
2023/09/04 01:55:45;;;;;;;2.95;2.65;;;13.80;99.90;;;;;;5004578;28;20040;-34
2023/09/04 01:58:10;;;;;;;3.30;2.70;;;13.70;99.90;;;;;;5002010;28;20026;-31
2023/09/04 02:00:37;;;;;;;3.95;2.90;;;13.70;99.90;;;;;;4996594;28;20456;-31
2023/09/04 02:03:03;;;;;;;3.30;3.00;;;13.60;99.90;;;;;;5004033;28;20569;-31
2023/09/04 02:05:28;;;;;;;4.95;3.03;;;13.60;99.90;;;;;;5004524;28;20085;-31
2023/09/04 02:07:54;;;;;;;3.33;3.00;;;13.60;99.90;;;;;;5004494;28;20033;-33
2023/09/04 02:10:22;;;;;;;3.55;3.25;;;13.60;99.90;;;;;;5008660;28;20032;-31
2023/09/04 02:12:48;;;;;;;3.90;3.45;;;13.60;99.90;;;;;;5008595;28;20026;-33
2023/09/04 02:15:14;;;;;;;5.72;4.05;;;13.50;99.90;;;;;;5002208;28;20447;-32
2023/09/04 02:17:39;;;;;;;4.35;3.50;;;13.60;99.90;;;;;;5004851;28;20799;-34
2023/09/04 02:20:06;;;;;;;4.32;3.50;;;13.60;99.90;;;;;;5005376;28;20099;-33
2023/09/04 02:22:31;;;;;;;4.43;3.78;;;13.60;99.90;;;;;;5002400;28;20646;-31
2023/09/04 02:24:57;;;;;;;4.13;3.40;;;13.60;99.90;;;;;;5003619;28;20113;-32
2023/09/04 02:27:23;;;;;;;4.88;3.63;;;13.60;99.90;;;;;;5002653;28;20596;-31
2023/09/04 02:29:48;;;;;;;3.80;3.25;;;13.70;99.90;;;;;;5006629;28;20041;-32
2023/09/04 02:32:14;;;;;;;6.95;4.22;;;13.60;99.90;;;;;;5001999;28;20117;-39
2023/09/04 02:34:40;;;;;;;3.88;3.58;;;13.60;99.90;;;;;;4998798;28;20570;-39
2023/09/04 02:37:06;;;;;;;4.50;3.63;;;13.60;99.90;;;;;;5004408;28;20029;-39
2023/09/04 02:39:31;;;;;;;4.40;3.50;;;13.50;99.90;;;;;;4997080;28;20041;-37
2023/09/04 02:41:57;;;;;;;4.47;3.72;;;13.50;99.90;;;;;;5000730;28;20116;-38
2023/09/04 02:44:22;;;;;;;7.00;3.97;;;13.50;99.90;;;;;;5007299;28;20038;-38
2023/09/04 02:46:48;;;;;;;4.30;3.53;;;13.70;99.90;;;;;;5002965;28;20029;-39
2023/09/04 02:49:13;;;;;;;4.18;3.58;;;13.70;99.90;;;;;;5001152;28;21036;-40
2023/09/04 02:51:39;;;;;;;4.35;3.53;;;13.70;99.90;;;;;;5005686;28;20022;-35
2023/09/04 02:54:05;;;;;;;4.10;3.47;;;13.70;99.90;;;;;;5005245;28;20061;-40
2023/09/04 02:56:30;;;;;;;4.07;3.60;;;13.60;99.90;;;;;;5008966;28;20026;-40
2023/09/04 02:58:56;;;;;;;6.03;4.00;;;13.50;99.90;;;;;;5005091;28;21763;-40
2023/09/04 03:01:21;;;;;;;4.47;3.85;;;13.40;99.90;;;;;;5009730;28;20437;-39
2023/09/04 03:03:47;;;;;;;4.15;3.75;;;13.40;99.90;;;;;;5005104;28;20033;-39
2023/09/04 03:06:12;;;;;;;4.88;4.38;;;13.40;99.90;;;;;;5007419;28;20022;-38
2023/09/04 03:08:38;;;;;;;4.75;4.28;;;13.40;99.90;;;;;;5007972;28;20026;-40
2023/09/04 03:11:10;;;;;;;6.38;4.47;;;13.50;99.90;;;;;;5003211;28;20107;-40
2023/09/04 03:13:37;;;;;;;6.03;4.53;;;13.50;99.90;;;;;;5003639;28;20037;-39
2023/09/04 03:16:05;;;;;;;5.97;4.18;;;13.50;99.90;;;;;;5003068;28;20116;-37
2023/09/04 03:18:31;;;;;;;;;;;13.60;99.90;;;;;;5004544;28;20394;-38
2023/09/04 03:20:57;;;;;;;5.80;4.65;;;13.50;99.90;;;;;;5006619;28;20343;-38
2023/09/04 03:23:23;;;;;;;5.97;4.70;;;13.60;99.90;;;;;;5005990;28;20103;-40
2023/09/04 03:25:48;;;;;;;5.00;4.15;;;13.50;99.90;;;;;;5007337;28;20110;-39
2023/09/04 03:28:14;;;;;;;5.53;4.38;;;13.50;99.90;;;;;;5004904;28;20034;-40
2023/09/04 03:30:39;;;;;;;5.57;4.90;;;13.50;99.90;;;;;;5005020;28;20046;-39
2023/09/04 03:33:05;;;;;;;5.55;4.25;;;13.40;99.90;;;;;;5004198;28;20060;-36
2023/09/04 03:35:30;;;;;;;6.55;4.68;;;13.30;99.90;;;;;;5004049;28;20034;-37
2023/09/04 03:37:56;;;;;;;5.25;4.22;;;13.20;99.90;;;;;;5003574;28;20026;-36
2023/09/04 03:40:26;;;;;;;5.95;4.55;;;13.20;99.90;;;;;;5003701;28;20159;-39
2023/09/04 03:42:53;;;;;;;4.30;3.80;;;13.20;99.90;;;;;;5008037;28;20509;-37
2023/09/04 03:45:19;;;;;;;4.80;4.00;;;13.10;99.90;;;;;;5004464;28;20026;-40
2023/09/04 03:47:45;;;;;;;4.10;3.70;;;13.00;99.90;;;;;;5005350;28;20065;-38
2023/09/04 03:50:12;;;;;;;4.68;3.90;;;13.10;99.90;;;;;;5006295;28;20676;-39
2023/09/04 03:52:39;;;;;;;3.85;3.47;;;13.10;99.90;;;;;;5005268;28;20041;-35
2023/09/04 03:55:06;;;;;;;5.35;3.95;;;13.00;99.90;;;;;;5005351;28;20100;-38
2023/09/04 03:57:32;;;;;;;4.95;4.18;;;13.10;99.90;;;;;;5005116;28;20026;-38
2023/09/04 03:59:58;;;;;;;6.05;4.28;;;13.10;99.90;;;;;;5005034;28;20096;-35
2023/09/04 04:02:23;;;;;;;4.55;3.95;;;13.20;99.90;;;;;;5003483;28;20061;-39
2023/09/04 04:04:52;;;;;;;6.15;4.32;;;13.20;99.90;;;;;;5005288;28;20034;-38
2023/09/04 04:07:18;;;;;;;4.90;3.97;;;13.10;99.90;;;;;;5007435;28;20036;-39
2023/09/04 04:09:44;;;;;;;4.78;4.32;;;13.00;99.90;;;;;;5007269;28;20034;-40
2023/09/04 04:12:10;;;;;;;5.72;4.63;;;13.00;99.90;;;;;;5002400;28;20475;-40
2023/09/04 04:14:36;;;;;;;7.47;4.30;;;13.00;99.90;;;;;;5006415;28;20037;-40
2023/09/04 04:17:02;;;;;;;6.10;4.88;;;13.00;99.90;;;;;;5004433;28;20526;-39
2023/09/04 04:19:28;;;;;;;6.35;4.85;;;13.00;99.90;;;;;;5002692;28;20041;-37
2023/09/04 04:21:53;;;;;;;4.97;4.43;;;13.00;99.90;;;;;;5005261;28;20151;-40
2023/09/04 04:24:20;;;;;;;8.07;5.38;;;12.90;99.90;;;;;;5002943;28;20487;-39
2023/09/04 04:26:46;;;;;;;6.35;5.00;;;12.90;99.90;;;;;;5004515;28;20386;-37
2023/09/04 04:29:11;;;;;;;7.03;5.35;;;12.90;99.90;;;;;;5001119;28;20034;-40
2023/09/04 04:31:38;;;;;;;6.43;5.60;;;12.90;99.90;;;;;;5003725;28;20026;-40
2023/09/04 04:34:03;;;;;;;7.03;5.65;;;13.00;99.90;;;;;;5005384;28;20025;-40
2023/09/04 04:36:30;;;;;;;6.38;5.05;;;13.00;99.90;;;;;;5004877;28;20501;-39
2023/09/04 04:38:55;;;;;;;7.80;5.50;;;13.10;99.90;;;;;;5002006;28;20029;-40
2023/09/04 04:41:21;;;;;;;7.05;5.15;;;13.20;99.90;;;;;;5001878;28;20037;-40
2023/09/04 04:43:47;;;;;;;5.90;5.13;;;13.20;99.90;;;;;;5003064;28;20030;-35
2023/09/04 04:46:15;;;;;;;7.82;5.40;;;13.30;99.90;;;;;;5003481;28;20065;-39
2023/09/04 04:48:40;;;;;;;6.07;5.13;;;13.30;99.90;;;;;;5003550;28;20072;-38
2023/09/04 04:51:10;;;;;;;9.40;5.53;;;13.30;99.90;;;;;;5002763;28;20041;-39
2023/09/04 04:53:36;;;;;;;7.57;5.07;;;13.30;99.90;;;;;;5001373;28;20061;-38
2023/09/04 04:56:02;;;;;;;7.05;5.60;;;13.20;99.90;;;;;;5004104;28;20034;-39
2023/09/04 04:58:27;;;;;;;7.00;5.30;;;13.00;99.90;;;;;;5004344;28;20033;-40
2023/09/04 05:00:53;;;;;;;6.93;5.43;;;13.10;99.90;;;;;;5005075;28;20041;-36
2023/09/04 05:03:19;;;;;;;6.78;5.57;;;13.10;99.90;;;;;;5002121;28;20058;-39
2023/09/04 05:05:45;;;;;;;9.20;5.85;;;13.10;99.90;;;;;;5005751;28;20061;-38
2023/09/04 05:08:11;;;;;;;8.00;5.85;;;13.20;99.90;;;;;;5004452;28;20029;-40
2023/09/04 05:10:36;;;;;;;5.60;4.72;;;13.20;99.90;;;;;;5001222;28;20048;-39
2023/09/04 05:13:02;;;;;;;5.70;5.13;;;13.30;99.90;;;;;;5006976;28;20276;-40
2023/09/04 05:15:28;;;;;;;6.40;5.45;;;13.40;99.90;;;;;;5002821;28;20038;-39
2023/09/04 05:17:53;;;;;;;5.88;5.22;;;13.30;99.90;;;;;;5002796;28;20026;-39
2023/09/04 05:20:19;;;;;;;6.93;5.25;;;13.30;99.90;;;;;;5004155;28;20023;-38
2023/09/04 05:22:45;;;;;;;7.15;5.70;;;13.10;99.90;;;;;;5004562;28;22087;-38
2023/09/04 05:25:11;;;;;;;7.43;6.00;;;13.20;99.90;;;;;;5001933;28;20733;-39
2023/09/04 05:27:37;;;;;;;7.35;6.00;;;13.10;99.90;;;;;;5003681;28;20028;-40
2023/09/04 05:30:03;;;;;;;6.55;5.70;;;13.10;99.90;;;;;;5000852;28;20018;-37
2023/09/04 05:32:29;;;;;;;6.28;5.53;;;13.20;99.90;;;;;;5000824;28;20088;-39
2023/09/04 05:34:54;;;;;;;7.40;5.80;;;13.30;99.90;;;;;;5003200;28;20026;-37
2023/09/04 05:37:21;;;;;;;8.35;5.97;;;13.40;99.90;;;;;;4999355;28;20072;-37
2023/09/04 05:39:47;;;;;;;8.05;6.35;;;13.40;99.90;;;;;;4999961;28;20480;-38
2023/09/04 05:42:12;;;;;;;8.20;6.35;;;13.50;99.90;;;;;;5004838;28;20029;-38
2023/09/04 05:44:38;;;;;;;8.63;6.50;;;13.50;99.90;;;;;;5002546;28;20030;-39
2023/09/04 05:47:04;;;;;;;7.80;6.75;;;13.70;99.90;;;;;;5000608;28;20030;-40
2023/09/04 05:49:29;;;;;;;9.10;6.82;;;13.80;99.90;;;;;;5004355;28;20107;-40
2023/09/04 05:51:55;;;;;;;9.43;7.28;;;13.90;99.90;;;;;;4998571;28;20675;-37
2023/09/04 05:54:22;;;;;;;11.48;7.18;;;13.90;99.90;;;;;;5001183;28;20037;-39
2023/09/04 05:56:49;;;;;;;10.38;7.60;;;14.00;99.90;;;;;;5000822;28;20083;-36
2023/09/04 05:59:14;;;;;;;12.75;7.55;;;14.10;99.90;;;;;;5002019;28;20458;-39
2023/09/04 06:01:40;;;;;;;9.98;7.60;;;14.10;99.90;;;;;;5003342;28;20117;-35
2023/09/04 06:04:05;;;;;;;10.95;7.38;;;14.20;99.90;;;;;;5003025;28;20038;-31
2023/09/04 06:06:31;;;;;;;10.43;7.10;;;14.30;99.90;;;;;;5006785;28;20033;-31
2023/09/04 06:08:57;;;;;;;10.05;7.70;;;14.30;99.90;;;;;;5001209;28;20156;-33
2023/09/04 06:11:23;;;;;;;11.05;7.72;;;14.30;99.90;;;;;;5000462;28;20534;-31
2023/09/04 06:13:51;;;;;;;11.07;7.63;;;14.40;99.90;;;;;;5001320;28;20040;-33
2023/09/04 06:16:19;;;;;;;9.38;7.43;;;14.40;99.90;;;;;;5005131;28;20030;-32
2023/09/04 06:18:44;;;;;;;9.73;6.95;;;14.50;99.90;;;;;;4996244;28;20030;-34
2023/09/04 06:21:10;;;;;;;9.07;7.20;;;14.60;99.90;;;;;;5001940;28;20026;-33
2023/09/04 06:23:35;;;;;;;8.73;7.55;;;14.70;99.90;;;;;;5005298;28;20129;-31
2023/09/04 06:26:02;;;;;;;9.68;7.38;;;14.70;99.90;;;;;;5002845;28;20045;-34
2023/09/04 06:28:28;;;;;;;9.18;7.85;;;14.80;99.90;;;;;;5007270;28;20033;-32
2023/09/04 06:30:55;;;;;;;10.63;7.80;;;15.00;99.90;;;;;;5004972;28;20034;-35
2023/09/04 06:33:23;;;;;;;9.52;7.78;;;15.10;99.90;;;;;;5006248;28;20091;-32
2023/09/04 06:35:49;;;;;;;8.93;7.47;;;15.10;99.90;;;;;;5008275;28;20030;-31
2023/09/04 06:38:15;;;;;;;10.25;8.15;;;15.20;99.90;;;;;;5007201;28;20404;-34
2023/09/04 06:40:42;;;;;;;10.90;7.78;;;15.20;99.90;;;;;;5009495;28;20036;-31
2023/09/04 06:43:09;;;;;;;8.93;7.30;;;15.30;99.90;;;;;;5004410;28;20029;-31
2023/09/04 06:45:37;;;;;;;8.98;7.40;;;15.40;99.90;;;;;;5008361;28;20083;-32
2023/09/04 06:48:04;;;;;;;;;;;15.60;99.90;;;;;;5007951;28;20018;-33
2023/09/04 06:50:29;;;;;;;9.32;7.13;;;15.80;99.90;;;;;;5008407;28;20432;-37
2023/09/04 06:52:55;;;;;;;8.35;6.57;;;15.80;99.90;;;;;;5009207;28;20113;-35
2023/09/04 06:55:20;;;;;;;8.57;6.45;;;15.90;99.90;;;;;;5009007;28;20503;-33
2023/09/04 06:57:46;;;;;;;7.88;6.30;;;16.00;99.90;;;;;;5006159;28;20108;-31
2023/09/04 07:00:12;;;;;;;8.63;6.45;;;16.10;99.90;;;;;;5005894;28;20487;-33
2023/09/04 07:02:38;;;;;;;7.07;6.22;;;16.30;99.90;;;;;;5006397;28;20870;-35
2023/09/04 07:05:05;;;;;;;8.35;6.15;;;16.40;99.90;;;;;;5007303;28;20042;-32
2023/09/04 07:07:35;;;;;;;9.15;6.65;;;16.40;99.90;;;;;;5007344;28;20026;-33
2023/09/04 07:10:04;;;;;;;9.05;6.10;;;16.50;99.90;;;;;;5014633;28;20037;-32
2023/09/04 07:12:33;;;;;;;6.75;6.05;;;16.50;99.90;;;;;;5006300;28;20088;-37
2023/09/04 07:14:59;;;;;;;7.00;5.70;;;16.60;99.90;;;;;;5003846;28;20029;-37
2023/09/04 07:17:25;;;;;;;7.60;6.45;;;16.80;99.90;;;;;;5005337;28;20100;-35
2023/09/04 07:19:50;;;;;;;6.70;5.85;;;16.90;99.90;;;;;;5005872;28;20037;-34
2023/09/04 07:22:16;;;;;;;8.88;6.68;;;16.90;99.90;;;;;;5003886;28;20514;-33
2023/09/04 07:24:41;;;;;;;7.78;6.00;;;16.90;99.90;;;;;;5007125;28;20066;-36
2023/09/04 07:27:07;;;;;;;9.38;5.78;;;17.10;99.90;;;;;;5003542;28;20105;-32
2023/09/04 07:29:33;;;;;;;7.68;6.13;;;17.10;99.90;;;;;;5005374;28;20040;-36
2023/09/04 07:31:59;;;;;;;6.70;6.00;;;17.10;99.90;;;;;;5003778;28;20117;-38
2023/09/04 07:34:25;;;;;;;7.55;5.28;;;17.20;99.90;;;;;;5004835;28;20426;-36
2023/09/04 07:36:52;;;;;;;6.10;5.40;;;17.30;99.90;;;;;;5007027;28;20034;-41
2023/09/04 07:39:17;;;;;;;6.18;5.57;;;17.50;99.90;;;;;;5003114;28;20040;-40
2023/09/04 07:41:43;;;;;;;8.07;6.35;;;17.50;99.90;;;;;;5003776;28;20124;-37
2023/09/04 07:44:09;;;;;;;7.03;5.88;;;17.60;99.90;;;;;;5006350;28;20559;-41
2023/09/04 07:46:34;;;;;;;6.38;5.65;;;17.70;99.90;;;;;;5004234;28;20068;-40
2023/09/04 07:49:00;;;;;;;7.40;5.70;;;17.80;99.90;;;;;;5003864;28;20084;-39
2023/09/04 07:51:26;;;;;;;8.68;5.57;;;17.90;99.90;;;;;;5004302;28;20072;-38
2023/09/04 07:53:51;;;;;;;6.55;5.40;;;18.10;99.90;;;;;;5004851;28;20030;-37
2023/09/04 07:56:17;;;;;;;7.68;6.30;;;18.10;99.90;;;;;;5005407;28;20055;-39
2023/09/04 07:58:44;;;;;;;7.40;5.75;;;18.30;99.90;;;;;;5003683;28;20034;-38
2023/09/04 08:01:15;;;;;;;9.13;5.53;;;18.40;99.90;;;;;;5002309;28;20045;-38
2023/09/04 08:03:43;;;;;;;9.43;5.88;;;18.30;99.90;;;;;;5005071;28;20036;-39
2023/09/04 08:06:08;;;;;;;6.30;5.13;;;18.50;99.90;;;;;;5007085;28;20064;-35
2023/09/04 08:08:34;;;;;;;5.78;5.18;;;18.60;99.90;;;;;;5003864;28;20057;-36
2023/09/04 08:10:59;;;;;;;6.03;5.25;;;18.70;99.90;;;;;;5005407;28;20422;-37
2023/09/04 08:13:25;;;;;;;7.30;5.63;;;18.80;99.90;;;;;;5002996;28;20037;-40
2023/09/04 08:15:51;;;;;;;5.63;5.10;;;18.80;99.90;;;;;;5004102;28;20038;-36
2023/09/04 08:18:16;;;;;;;8.95;5.55;;;19.10;99.90;;;;;;5003699;28;20613;-40
2023/09/04 08:20:42;;;;;;;5.55;4.90;;;19.10;99.90;;;;;;5005951;28;20056;-36
2023/09/04 08:23:09;;;;;;;5.25;4.65;;;19.10;99.90;;;;;;5005590;28;20041;-35
2023/09/04 08:25:36;;;;;;;8.40;6.28;;;19.10;99.90;;;;;;5004038;28;20481;-33
2023/09/04 08:28:02;;;;;;;8.05;5.80;;;19.30;99.90;;;;;;5000020;28;20080;-36
2023/09/04 08:30:28;;;;;;;8.30;5.50;;;19.40;99.90;;;;;;5002113;28;20029;-32
2023/09/04 08:32:54;;;;;;;6.82;5.72;;;19.40;99.90;;;;;;5002840;28;20029;-33
2023/09/04 08:35:20;;;;;;;8.38;5.63;;;19.30;99.90;;;;;;5001843;28;20160;-34
2023/09/04 08:37:47;;;;;;;5.40;4.90;;;19.40;99.90;;;;;;5002111;28;20502;-33
2023/09/04 08:40:13;;;;;;;7.20;5.63;;;19.40;99.90;;;;;;5004470;28;20092;-33
2023/09/04 08:42:39;;;;;;;8.10;5.43;;;19.50;99.90;;;;;;5003007;28;20045;-39
2023/09/04 08:45:08;;;;;;;6.88;5.25;;;19.50;99.90;;;;;;5003195;28;20735;-36
2023/09/04 08:47:41;;;;;;;7.80;5.85;;;19.50;99.90;;;;;;5004864;28;20106;-38
2023/09/04 08:50:08;;;;;;;6.15;5.50;;;19.70;99.90;;;;;;5002181;28;20038;-37
2023/09/04 08:52:36;;;;;;;6.07;4.88;;;19.90;99.90;;;;;;5005172;28;20036;-39
2023/09/04 08:55:05;;;;;;;5.82;5.25;;;20.00;99.90;;;;;;4999699;28;20037;-35
2023/09/04 08:57:33;;;;;;;6.53;4.72;;;20.10;99.90;;;;;;5003156;28;20030;-39
2023/09/04 08:59:59;;;;;;;5.38;4.47;;;20.20;99.90;;;;;;5002523;28;20113;-39
2023/09/04 09:02:25;;;;;;;5.20;4.65;;;20.20;99.90;;;;;;5015967;28;20122;-36
2023/09/04 09:04:51;;;;;;;5.68;4.75;;;20.40;99.90;;;;;;5003192;28;20029;-38
2023/09/04 09:07:20;;;;;;;5.80;4.75;;;20.60;99.90;;;;;;5001067;28;20030;-37
2023/09/04 09:09:49;;;;;;;5.00;4.50;;;20.60;99.90;;;;;;5003034;28;20675;-37
2023/09/04 09:12:15;;;;;;;4.50;4.03;;;20.60;99.90;;;;;;5003962;28;20014;-40
2023/09/04 09:14:41;;;;;;;5.25;4.07;;;20.70;99.90;;;;;;5002238;28;20040;-38
2023/09/04 09:17:14;;;;;;;4.68;4.18;;;20.70;99.90;;;;;;5001715;28;20076;-37
2023/09/04 09:19:41;;;;;;;5.18;4.68;;;20.80;99.90;;;;;;5002861;28;20056;-38
2023/09/04 09:22:14;;;;;;;5.70;4.50;;;20.90;99.90;;;;;;5000563;28;20042;-37
2023/09/04 09:24:56;;;;;;;4.78;4.32;;;21.00;99.90;;;;;;5003332;28;20018;-36
2023/09/04 09:27:24;;;;;;;4.43;4.03;;;21.10;99.90;;;;;;5000858;28;20033;-39
2023/09/04 09:29:51;;;;;;;5.28;4.13;;;21.10;99.90;;;;;;5003338;28;20131;-37
2023/09/04 09:32:18;;;;;;;3.97;3.67;;;21.10;99.90;;;;;;5000254;28;20465;-33
2023/09/04 09:34:52;;;;;;;4.25;3.70;;;21.20;99.90;;;;;;4999849;28;20037;-34
2023/09/04 09:37:19;;;;;;;4.15;3.53;;;21.30;99.90;;;;;;5005445;28;20038;-32
2023/09/04 09:39:45;;;;;;;5.00;3.70;;;21.30;99.90;;;;;;4998400;28;20037;-34
2023/09/04 09:42:10;;;;;;;5.03;3.50;;;21.60;99.90;;;;;;5003985;28;20488;-35
2023/09/04 09:44:36;;;;;;;4.85;3.40;;;21.60;99.90;;;;;;5002807;28;20119;-33
2023/09/04 09:47:02;;;;;;;5.70;3.75;;;21.60;99.90;;;;;;5002039;28;20112;-34
2023/09/04 09:49:30;;;;;;;3.67;3.35;;;21.60;99.90;;;;;;5002200;28;20567;-35
2023/09/04 09:51:56;;;;;;;3.95;3.35;;;21.90;99.90;;;;;;4999690;28;20030;-37
2023/09/04 09:54:45;;;;;;;4.15;3.75;;;22.10;99.90;;;;;;5001023;28;20030;-37
2023/09/04 09:57:15;;;;;;;5.15;4.20;;;22.00;99.90;;;;;;5000143;28;20030;-39
2023/09/04 09:59:47;;;;;;;6.70;4.18;;;21.90;99.90;;;;;;4999858;28;20483;-39
2023/09/04 10:02:24;;;;;;;3.88;3.58;;;21.90;99.90;;;;;;5000444;28;20042;-39
2023/09/04 10:04:50;;;;;;;4.18;3.78;;;22.00;99.90;;;;;;5015449;28;20030;-36
2023/09/04 10:07:20;;;;;;;4.07;3.65;;;22.10;99.90;;;;;;5014379;28;20642;-38
2023/09/04 10:09:48;;;;;;;4.25;3.85;;;22.00;99.90;;;;;;5004524;28;20045;-40
2023/09/04 10:12:22;;;;;;;;;;;22.00;99.90;;;;;;5004238;28;20449;-39
2023/09/04 10:14:52;;;;;;;4.85;3.80;;;22.10;99.90;;;;;;5002313;28;19913;-39
2023/09/04 10:17:35;;;;;;;6.65;3.70;;;22.20;99.90;;;;;;5003243;28;20049;-39
2023/09/04 10:20:04;;;;;;;3.90;3.38;;;22.20;99.90;;;;;;5005289;28;20029;-37
2023/09/04 10:22:36;;;;;;;6.13;3.67;;;22.10;99.90;;;;;;5003849;28;20053;-38
2023/09/04 10:25:12;;;;;;;4.07;3.67;;;22.30;99.90;;;;;;4999535;28;20033;-40
2023/09/04 10:27:55;;;;;;;3.83;3.53;;;22.20;99.90;;;;;;4983253;28;20085;-36
2023/09/04 10:30:24;;;;;;;4.70;4.03;;;22.30;99.90;;;;;;5000371;28;20026;-37
2023/09/04 10:32:54;;;;;;;4.57;3.70;;;22.20;99.90;;;;;;5003800;28;20025;-39
2023/09/04 10:35:20;;;;;;;3.97;3.65;;;22.20;99.90;;;;;;5001696;28;20052;-37
2023/09/04 10:37:48;;;;;;;3.83;3.53;;;22.30;99.90;;;;;;5003892;28;20030;-40
2023/09/04 10:40:15;;;;;;;3.60;3.30;;;22.20;99.90;;;;;;5003235;28;20033;-37
2023/09/04 10:42:41;;;;;;;4.53;3.10;;;22.20;99.90;;;;;;5004166;28;20435;-38
2023/09/04 10:45:15;;;;;;;4.30;3.15;;;22.40;99.90;;;;;;4997599;28;20092;-37
2023/09/04 10:47:48;;;;;;;3.58;3.10;;;22.40;99.90;;;;;;5017235;28;20026;-39
2023/09/04 10:50:31;;;;;;;4.18;3.15;;;22.70;99.90;;;;;;5000691;28;20084;-39
2023/09/04 10:53:01;;;;;;;3.30;3.00;;;22.60;99.90;;;;;;5001731;28;20101;-39
2023/09/04 10:55:27;;;;;;;3.45;3.15;;;22.50;99.90;;;;;;5001323;28;20595;-40
2023/09/04 10:58:04;;;;;;;3.25;2.90;;;22.50;99.90;;;;;;5002246;28;20080;-39
2023/09/04 11:00:35;;;;;;;4.47;3.20;;;22.50;99.90;;;;;;5001112;28;20523;-38
2023/09/04 11:03:22;;;;;;;3.33;3.03;;;22.60;99.90;;;;;;5001797;28;20117;-38
2023/09/04 11:06:07;;;;;;;3.22;3.00;;;22.60;99.90;;;;;;5001327;28;20052;-34
2023/09/04 11:08:34;;;;;;;2.95;2.70;;;22.70;99.90;;;;;;4993502;28;20072;-38
2023/09/04 11:11:01;;;;;;;3.03;2.80;;;23.00;99.90;;;;;;5004627;28;20076;-37
2023/09/04 11:13:27;;;;;;;3.72;2.92;;;23.10;99.90;;;;;;5000795;28;20042;-35
2023/09/04 11:15:57;;;;;;;3.47;3.00;;;23.10;99.90;;;;;;5001651;28;20042;-40
2023/09/04 11:18:28;;;;;;;3.00;2.70;;;23.10;99.90;;;;;;5004526;28;20037;-37
2023/09/04 11:20:55;;;;;;;3.15;2.55;;;23.10;99.90;;;;;;5012098;28;20030;-37
2023/09/04 11:23:23;;;;;;;3.95;3.00;;;23.20;99.90;;;;;;5005013;28;20669;-38
2023/09/04 11:25:52;;;;;;;3.03;2.60;;;23.30;99.90;;;;;;5004382;28;20041;-38
2023/09/04 11:28:25;;;;;;;2.92;2.72;;;23.40;99.90;;;;;;5004829;28;20033;-39
2023/09/04 11:30:58;;;;;;;3.22;2.92;;;23.40;99.90;;;;;;5002692;28;20030;-33
2023/09/04 11:33:29;;;;;;;2.83;2.63;;;23.30;99.90;;;;;;5002398;28;20617;-38
2023/09/04 11:36:05;;;;;;;3.72;3.28;;;23.20;99.90;;;;;;5002124;28;20372;-39
2023/09/04 11:38:33;;;;;;;4.70;3.05;;;23.30;99.90;;;;;;4998746;28;20073;-38
2023/09/04 11:40:58;;;;;;;3.50;2.78;;;23.20;99.90;;;;;;5002681;28;20025;-39
2023/09/04 11:43:27;;;;;;;4.63;3.08;;;23.20;99.90;;;;;;5003368;28;20049;-35
2023/09/04 11:45:55;;;;;;;3.70;2.92;;;23.30;99.90;;;;;;5004484;28;20040;-37
2023/09/04 11:48:25;;;;;;;3.00;2.63;;;23.30;99.90;;;;;;5007385;28;20022;-38
2023/09/04 11:50:51;;;;;;;3.05;2.75;;;23.40;99.90;;;;;;5004861;28;20209;-36
2023/09/04 11:53:18;;;;;;;3.58;3.28;;;23.30;99.90;;;;;;5003555;28;20030;-38
2023/09/04 11:55:43;;;;;;;3.17;2.85;;;23.30;99.90;;;;;;5004134;28;20033;-38
2023/09/04 11:58:09;;;;;;;3.58;2.67;;;23.40;99.90;;;;;;5002801;28;20041;-38
2023/09/04 12:00:34;;;;;;;3.45;2.55;;;23.50;99.90;;;;;;5002569;28;20033;-38
2023/09/04 12:03:00;;;;;;;2.60;2.40;;;23.50;99.90;;;;;;5003868;28;20073;-34
2023/09/04 12:05:26;;;;;;;3.97;2.55;;;23.60;99.90;;;;;;5004581;28;20036;-38
2023/09/04 12:07:53;;;;;;;4.25;2.67;;;23.80;99.90;;;;;;5004563;28;20041;-39
2023/09/04 12:10:18;;;;;;;4.25;2.60;;;23.70;99.90;;;;;;5003343;28;20026;-41
2023/09/04 12:12:45;;;;;;;2.70;2.50;;;23.70;99.90;;;;;;5002768;28;20506;-34
2023/09/04 12:15:30;;;;;;;3.05;2.70;;;23.70;99.90;;;;;;5003787;28;20030;-33
2023/09/04 12:17:57;;;;;;;3.10;2.80;;;23.80;99.90;;;;;;5005686;28;20121;-33
2023/09/04 12:20:23;;;;;;;2.88;2.63;;;23.80;99.90;;;;;;5007691;28;20034;-31
2023/09/04 12:22:59;;;;;;;3.10;2.58;;;23.70;99.90;;;;;;5003718;28;20068;-31
2023/09/04 12:25:42;;;;;;;4.10;3.13;;;23.70;99.90;;;;;;5005771;28;20069;-36
2023/09/04 12:28:10;;;;;;;3.75;2.58;;;23.70;99.90;;;;;;4999577;28;20029;-32
2023/09/04 12:30:37;;;;;;;2.60;2.40;;;23.60;99.90;;;;;;5000229;28;20040;-30
2023/09/04 12:33:06;;;;;;;2.40;2.20;;;23.80;99.90;;;;;;5005855;28;20026;-32
2023/09/04 12:35:32;;;;;;;2.95;2.60;;;23.80;99.90;;;;;;5006377;28;20040;-31
2023/09/04 12:37:58;;;;;;;3.67;2.72;;;24.00;99.90;;;;;;5006690;28;20117;-31
2023/09/04 12:40:25;;;;;;;3.83;2.42;;;24.10;99.90;;;;;;5004125;28;20041;-33
2023/09/04 12:42:51;;;;;;;4.60;3.10;;;24.10;99.90;;;;;;5005337;28;20033;-33
2023/09/04 12:45:17;;;;;;;3.45;2.72;;;24.20;99.90;;;;;;5002631;28;20040;-33
2023/09/04 12:47:42;;;;;;;2.45;2.17;;;24.00;99.90;;;;;;5006817;28;20407;-31
2023/09/04 12:50:08;;;;;;;2.60;2.40;;;24.00;99.90;;;;;;5003402;28;20025;-33